This is the latest recevied weather packets stored in our database for station/object DG2YCM-10. If no packets are shown the sender has not sent any weather packets the latest 1 day(s).
| Time | Temp. | Humidity | Pressure | Rain* | Wind** | Luminosity | Snow |
|---|---|---|---|---|---|---|---|
| 1777783325 | 12.22° C | 80% | 1008.7 hPa | - | - | - | - |
| 1777779828 | 12.22° C | 78% | 1008.8 hPa | - | - | - | - |
| 1777779784 | 12.22° C | 78% | 1008.8 hPa | - | - | - | - |
| 1777776244 | 12.22° C | 77% | 1009 hPa | - | - | - | - |
| 1777772704 | 12.22° C | 77% | 1009.1 hPa | - | - | - | - |
| 1777769164 | 12.22° C | 72% | 1009.4 hPa | - | - | - | - |
| 1777765624 | 13.33° C | 64% | 1009.8 hPa | - | - | - | - |
| 1777762083 | 13.89° C | 64% | 1010 hPa | - | - | - | - |
| 1777758543 | 16.11° C | 54% | 1010 hPa | - | - | - | - |
| 1777755003 | 16.67° C | 50% | 1009.8 hPa | - | - | - | - |
| 1777751463 | 19.44° C | 38% | 1010 hPa | - | - | - | - |
| 1777747923 | 22.78° C | 29% | 1009.6 hPa | - | - | - | - |
| 1777744383 | 23.89° C | 25% | 1009.6 hPa | - | - | - | - |
| 1777740843 | 25.56° C | 26% | 1009.6 hPa | - | - | - | - |
| 1777737303 | 26.11° C | 29% | 1010.3 hPa | - | - | - | - |
| 1777733762 | 26.67° C | 28% | 1011 hPa | - | - | - | - |
| 1777730222 | 25.56° C | 36% | 1011.6 hPa | - | - | - | - |
| 1777726682 | 26.11° C | 39% | 1012.3 hPa | - | - | - | - |
| 1777723142 | 25.56° C | 42% | 1013.2 hPa | - | - | - | - |
| 1777719602 | 24.44° C | 44% | 1013.8 hPa | - | - | - | - |
| 1777716062 | 23.89° C | 43% | 1014.4 hPa | - | - | - | - |
| 1777712522 | 21.11° C | 48% | 1015 hPa | - | - | - | - |
| 1777708981 | 18.33° C | 47% | 1015.5 hPa | - | - | - | - |
| 1777705441 | 15.56° C | 56% | 1015.8 hPa | - | - | - | - |
| 1777701901 | 10.56° C | 73% | 1016.1 hPa | - | - | - | - |
* Rain since midnight (hover to see other rain measurements)
** Current wind speed in m/s (hover to see current wind gust speed)